Time;durP1;ratioP1;P1;durP2;ratioP2;P2;SDS_P1;SDS_P2;PMS_P1;PMS_P2;Temp;Humidity;BMP_temperature;BMP_pressure;BME280_temperature;BME280_humidity;BME280_pressure;Samples;Min_cycle;Max_cycle;Signal;HPM_P1;HPM_P2
2024/04/06 00:02:21;;;;;;;3.08;2.47;;;17.20;78.30;;;;;;4990061;28;20029;-39
2024/04/06 00:04:47;;;;;;;2.88;2.10;;;17.20;78.30;;;;;;4994518;28;20038;-35
2024/04/06 00:07:13;;;;;;;2.85;2.10;;;17.20;78.30;;;;;;4958783;28;20460;-37
2024/04/06 00:09:38;;;;;;;3.20;2.35;;;17.20;78.30;;;;;;4953248;28;20034;-36
2024/04/06 00:12:05;;;;;;;3.05;2.20;;;17.20;78.30;;;;;;4959096;28;20035;-33
2024/04/06 00:14:31;;;;;;;2.90;2.20;;;17.20;78.30;;;;;;4959339;28;20110;-37
2024/04/06 00:16:57;;;;;;;3.08;2.38;;;17.20;78.40;;;;;;4948720;28;20648;-34
2024/04/06 00:19:23;;;;;;;2.90;2.20;;;17.20;78.40;;;;;;4962331;28;20043;-34
2024/04/06 00:21:49;;;;;;;3.03;2.10;;;17.10;78.30;;;;;;4959986;28;20102;-34
2024/04/06 00:24:16;;;;;;;3.67;2.10;;;17.10;78.30;;;;;;4961522;28;20103;-35
2024/04/06 00:26:43;;;;;;;3.10;2.38;;;17.10;78.40;;;;;;4960626;28;20709;-33
2024/04/06 00:29:08;;;;;;;2.50;2.03;;;17.10;78.40;;;;;;4960887;28;20039;-32
2024/04/06 00:31:34;;;;;;;3.47;2.28;;;17.10;78.40;;;;;;4955556;28;20286;-34
2024/04/06 00:34:02;;;;;;;2.80;2.13;;;17.10;78.40;;;;;;4960223;28;20023;-33
2024/04/06 00:36:31;;;;;;;2.75;2.05;;;17.10;78.40;;;;;;4952217;28;20031;-32
2024/04/06 00:38:58;;;;;;;3.65;2.10;;;17.10;78.40;;;;;;4961192;28;20428;-35
2024/04/06 00:41:23;;;;;;;3.05;2.05;;;17.00;78.40;;;;;;4961366;28;20027;-35
2024/04/06 00:43:49;;;;;;;2.58;2.08;;;17.00;78.40;;;;;;4993916;28;20042;-37
2024/04/06 00:46:16;;;;;;;2.85;2.00;;;17.00;78.40;;;;;;4961551;28;20094;-36
2024/04/06 00:48:42;;;;;;;2.42;2.00;;;17.00;78.40;;;;;;4959814;28;20031;-33
2024/04/06 00:51:08;;;;;;;2.35;1.90;;;17.00;78.40;;;;;;4954970;28;20039;-36
2024/04/06 00:53:33;;;;;;;3.03;2.17;;;17.00;78.40;;;;;;4949527;28;20027;-37
2024/04/06 00:56:00;;;;;;;2.47;2.03;;;17.00;78.50;;;;;;4963479;28;20050;-34
2024/04/06 00:58:27;;;;;;;2.47;1.98;;;16.90;78.50;;;;;;4962653;28;20031;-37
2024/04/06 01:00:53;;;;;;;3.10;2.05;;;16.90;78.40;;;;;;4957706;28;20387;-34
2024/04/06 01:03:19;;;;;;;2.47;2.05;;;16.90;78.40;;;;;;4959877;28;20083;-35
2024/04/06 01:05:44;;;;;;;3.10;2.10;;;16.90;78.40;;;;;;4972038;28;20057;-33
2024/04/06 01:08:10;;;;;;;1.92;1.70;;;16.90;78.50;;;;;;4996155;28;20360;-31
2024/04/06 01:10:36;;;;;;;2.83;2.00;;;17.00;78.50;;;;;;4997196;28;20023;-36
2024/04/06 01:13:02;;;;;;;2.17;1.80;;;16.90;78.50;;;;;;4999901;28;20022;-35
2024/04/06 01:15:32;;;;;;;2.08;1.88;;;16.90;78.50;;;;;;4998522;28;20033;-36
2024/04/06 01:17:58;;;;;;;2.28;1.80;;;16.90;78.50;;;;;;4999351;28;20069;-36
2024/04/06 01:20:26;;;;;;;2.28;1.83;;;16.90;78.50;;;;;;4993488;28;20031;-32
2024/04/06 01:22:52;;;;;;;1.83;1.65;;;16.90;78.50;;;;;;4996207;28;20077;-37
2024/04/06 01:25:17;;;;;;;2.25;1.77;;;16.90;78.60;;;;;;4999150;28;20031;-34
2024/04/06 01:27:44;;;;;;;3.53;2.10;;;16.90;78.60;;;;;;4996108;28;20394;-34
2024/04/06 01:30:14;;;;;;;2.67;2.00;;;16.90;78.70;;;;;;4993932;28;20435;-33
2024/04/06 01:32:50;;;;;;;2.28;1.75;;;16.90;78.70;;;;;;4992246;28;20057;-37
2024/04/06 01:35:17;;;;;;;3.03;2.00;;;16.90;78.70;;;;;;4999015;28;20033;-33
2024/04/06 01:37:44;;;;;;;1.75;1.65;;;16.90;78.70;;;;;;4997566;28;20533;-34
2024/04/06 01:40:11;;;;;;;2.58;1.77;;;16.90;78.70;;;;;;4999439;28;20034;-35
2024/04/06 01:42:37;;;;;;;3.20;1.80;;;16.90;78.70;;;;;;5000372;28;20081;-32
2024/04/06 01:45:04;;;;;;;2.10;1.90;;;16.90;78.70;;;;;;4998375;28;20030;-35
2024/04/06 01:47:30;;;;;;;3.17;1.85;;;16.90;78.70;;;;;;4999493;28;20045;-35
2024/04/06 01:49:59;;;;;;;2.00;1.80;;;16.90;78.70;;;;;;4996944;28;20038;-33
2024/04/06 01:52:25;;;;;;;2.75;1.83;;;16.90;78.70;;;;;;4996399;28;20382;-34
2024/04/06 01:54:51;;;;;;;2.45;1.90;;;16.80;78.70;;;;;;4994893;28;20595;-32
2024/04/06 01:57:17;;;;;;;2.20;1.83;;;16.90;79.40;;;;;;4995500;28;20037;-32
2024/04/06 01:59:45;;;;;;;2.45;1.83;;;16.90;78.80;;;;;;4997430;28;20023;-38
2024/04/06 02:02:12;;;;;;;3.10;1.80;;;16.90;78.80;;;;;;4997975;28;20054;-36
2024/04/06 02:04:40;;;;;;;4.05;2.20;;;16.80;78.80;;;;;;4999452;28;20038;-33
2024/04/06 02:07:06;;;;;;;1.70;1.60;;;16.80;78.90;;;;;;5031064;28;20114;-34
2024/04/06 02:09:31;;;;;;;2.58;1.63;;;16.80;78.90;;;;;;4995018;28;20022;-35
2024/04/06 02:11:57;;;;;;;2.33;1.75;;;16.80;78.90;;;;;;4998315;28;20058;-34
2024/04/06 02:14:23;;;;;;;2.47;1.73;;;16.80;78.90;;;;;;4995081;28;20058;-35
2024/04/06 02:16:49;;;;;;;3.03;2.05;;;16.80;78.90;;;;;;4994702;28;20529;-34
2024/04/06 02:19:14;;;;;;;2.33;1.90;;;16.80;78.90;;;;;;4993163;28;20103;-37
2024/04/06 02:21:40;;;;;;;1.90;1.70;;;16.80;78.90;;;;;;4999327;28;20363;-41
2024/04/06 02:24:06;;;;;;;1.92;1.70;;;16.80;78.90;;;;;;4997991;28;20077;-37
2024/04/06 02:26:31;;;;;;;1.90;1.60;;;16.80;79.00;;;;;;4993421;28;20053;-39
2024/04/06 02:28:57;;;;;;;2.75;1.70;;;16.90;79.10;;;;;;4994996;28;20022;-36
2024/04/06 02:31:23;;;;;;;2.45;1.85;;;16.80;79.60;;;;;;4998486;28;20128;-39
2024/04/06 02:33:49;;;;;;;2.35;1.90;;;16.90;79.10;;;;;;4992571;28;20022;-37
2024/04/06 02:36:15;;;;;;;2.00;1.60;;;16.80;79.00;;;;;;4998701;28;20026;-37
2024/04/06 02:38:42;;;;;;;1.67;1.55;;;16.80;79.00;;;;;;4992826;28;20497;-36
2024/04/06 02:41:08;;;;;;;1.80;1.70;;;16.80;79.10;;;;;;4988767;28;20025;-34
2024/04/06 02:43:34;;;;;;;2.20;1.67;;;16.80;79.00;;;;;;4997691;28;20112;-32
2024/04/06 02:46:00;;;;;;;2.22;1.70;;;16.80;79.10;;;;;;4995381;28;20125;-33
2024/04/06 02:48:26;;;;;;;1.95;1.50;;;16.80;79.00;;;;;;4987145;28;20031;-33
2024/04/06 02:50:51;;;;;;;2.22;1.80;;;16.80;79.10;;;;;;4995283;28;20026;-33
2024/04/06 02:53:17;;;;;;;2.60;1.90;;;16.80;79.70;;;;;;5026601;28;20062;-32
2024/04/06 02:55:43;;;;;;;1.83;1.65;;;16.80;79.10;;;;;;4995239;28;20049;-33
2024/04/06 02:58:08;;;;;;;2.15;1.60;;;16.80;79.10;;;;;;5000136;28;20014;-33
2024/04/06 03:00:37;;;;;;;2.78;1.98;;;16.80;79.10;;;;;;4997897;28;20029;-33
2024/04/06 03:03:03;;;;;;;1.52;1.42;;;16.80;79.20;;;;;;4997285;28;20014;-33
2024/04/06 03:05:29;;;;;;;2.55;1.80;;;16.80;79.10;;;;;;4994773;28;20502;-33
2024/04/06 03:07:55;;;;;;;1.83;1.52;;;16.80;79.20;;;;;;4994730;28;20437;-33
2024/04/06 03:10:22;;;;;;;2.03;1.70;;;16.80;79.10;;;;;;4991515;28;20078;-34
2024/04/06 03:12:48;;;;;;;2.47;1.67;;;16.80;79.10;;;;;;4996393;28;20030;-33
2024/04/06 03:15:14;;;;;;;2.42;1.60;;;16.80;79.10;;;;;;4996614;28;20069;-32
2024/04/06 03:17:40;;;;;;;1.75;1.50;;;16.80;79.20;;;;;;4998137;28;20023;-32
2024/04/06 03:20:08;;;;;;;3.25;1.80;;;16.80;79.20;;;;;;4996456;28;20350;-34
2024/04/06 03:22:33;;;;;;;1.60;1.50;;;16.80;79.70;;;;;;4996920;28;20022;-43
2024/04/06 03:24:59;;;;;;;1.83;1.63;;;16.80;79.20;;;;;;4997184;28;20472;-34
2024/04/06 03:27:26;;;;;;;1.77;1.67;;;16.80;79.10;;;;;;4993539;28;20101;-34
2024/04/06 03:29:51;;;;;;;1.60;1.50;;;16.80;79.10;;;;;;4997409;28;20018;-39
2024/04/06 03:32:17;;;;;;;2.25;1.70;;;16.80;79.10;;;;;;4994871;28;20046;-34
2024/04/06 03:34:43;;;;;;;2.22;1.80;;;16.80;79.20;;;;;;4995200;28;20359;-34
2024/04/06 03:37:09;;;;;;;1.70;1.60;;;16.80;79.80;;;;;;5030204;28;20613;-34
2024/04/06 03:39:35;;;;;;;1.70;1.60;;;16.70;79.10;;;;;;4995775;28;20470;-34
2024/04/06 03:42:01;;;;;;;1.85;1.63;;;16.70;79.10;;;;;;4991061;28;20347;-34
2024/04/06 03:44:27;;;;;;;1.83;1.58;;;16.70;79.10;;;;;;4996556;28;20034;-33
2024/04/06 03:46:52;;;;;;;2.10;1.90;;;16.70;79.10;;;;;;4997367;28;20069;-34
2024/04/06 03:49:18;;;;;;;1.60;1.50;;;16.70;79.00;;;;;;4994869;28;20035;-34
2024/04/06 03:51:44;;;;;;;2.42;1.60;;;16.70;79.00;;;;;;4998956;28;20042;-35
2024/04/06 03:54:10;;;;;;;2.17;1.70;;;16.70;79.00;;;;;;4996409;28;20032;-34
2024/04/06 03:56:35;;;;;;;1.98;1.60;;;16.70;79.10;;;;;;4998595;28;20026;-35
2024/04/06 03:59:01;;;;;;;2.20;1.70;;;16.70;79.10;;;;;;4992406;28;20053;-33
2024/04/06 04:01:27;;;;;;;2.47;1.42;;;16.70;79.20;;;;;;4999215;28;20069;-33
2024/04/06 04:03:52;;;;;;;2.00;1.60;;;16.70;79.10;;;;;;4986260;28;20037;-34
2024/04/06 04:06:18;;;;;;;2.35;1.70;;;16.60;79.10;;;;;;4994715;28;20459;-35
2024/04/06 04:08:44;;;;;;;2.28;1.80;;;16.60;79.00;;;;;;4995319;28;20042;-34
2024/04/06 04:11:10;;;;;;;1.95;1.70;;;16.60;79.10;;;;;;4997649;28;20045;-35
2024/04/06 04:13:36;;;;;;;1.63;1.52;;;16.60;79.10;;;;;;4996351;28;20019;-34
2024/04/06 04:16:02;;;;;;;2.08;1.70;;;16.60;79.10;;;;;;4993442;28;20044;-34
2024/04/06 04:18:27;;;;;;;1.83;1.70;;;16.60;79.10;;;;;;4990976;28;20027;-34
2024/04/06 04:20:53;;;;;;;1.67;1.50;;;16.60;79.10;;;;;;5027487;28;20042;-37
2024/04/06 04:23:19;;;;;;;2.33;1.85;;;16.60;79.10;;;;;;4996524;28;20026;-34
2024/04/06 04:25:45;;;;;;;2.40;1.73;;;16.50;79.00;;;;;;4992747;28;20593;-33
2024/04/06 04:28:10;;;;;;;2.25;1.70;;;16.50;79.10;;;;;;4996399;28;20085;-33
2024/04/06 04:30:36;;;;;;;2.25;1.73;;;16.50;79.10;;;;;;4988767;28;20026;-33
2024/04/06 04:33:02;;;;;;;3.03;1.70;;;16.50;79.10;;;;;;4996116;28;20018;-33
2024/04/06 04:35:28;;;;;;;3.25;1.80;;;16.50;79.10;;;;;;4996824;28;20027;-34
2024/04/06 04:37:54;;;;;;;3.30;2.10;;;16.50;79.10;;;;;;5027675;28;20035;-33
2024/04/06 04:40:20;;;;;;;2.15;1.80;;;16.40;79.10;;;;;;4994736;28;20049;-34
2024/04/06 04:42:46;;;;;;;2.00;1.80;;;16.40;79.00;;;;;;4995303;28;20435;-34
2024/04/06 04:45:13;;;;;;;2.38;1.90;;;16.40;79.10;;;;;;5027676;28;20019;-33
2024/04/06 04:47:42;;;;;;;2.47;1.83;;;16.50;79.20;;;;;;4996065;28;20035;-33
2024/04/06 04:50:09;;;;;;;2.00;1.70;;;16.40;79.20;;;;;;4993580;28;20029;-33
2024/04/06 04:52:35;;;;;;;2.00;1.70;;;16.40;79.20;;;;;;4998749;28;20027;-38
2024/04/06 04:55:01;;;;;;;3.05;1.80;;;16.40;79.20;;;;;;4997368;28;20506;-34
2024/04/06 04:57:26;;;;;;;2.03;1.80;;;16.40;79.20;;;;;;4991139;28;20029;-33
2024/04/06 04:59:52;;;;;;;2.42;1.92;;;16.40;79.20;;;;;;4998374;28;20030;-33
2024/04/06 05:02:18;;;;;;;3.20;2.10;;;16.30;79.20;;;;;;4996123;28;20039;-33
2024/04/06 05:04:43;;;;;;;2.35;2.00;;;16.30;79.80;;;;;;4993460;28;20026;-33
2024/04/06 05:07:09;;;;;;;3.22;2.00;;;16.30;79.20;;;;;;4998402;28;20054;-33
2024/04/06 05:09:35;;;;;;;3.22;2.10;;;16.30;79.20;;;;;;5000154;28;20035;-35
2024/04/06 05:12:01;;;;;;;2.97;2.03;;;16.30;79.20;;;;;;4996645;28;20022;-33
2024/04/06 05:14:30;;;;;;;2.83;2.00;;;16.30;79.20;;;;;;4998995;28;20033;-34
2024/04/06 05:16:56;;;;;;;3.28;2.03;;;16.30;79.30;;;;;;4997454;28;20030;-33
2024/04/06 05:19:22;;;;;;;3.08;2.30;;;16.20;79.20;;;;;;5000265;28;20038;-33
2024/04/06 05:21:48;;;;;;;2.88;2.13;;;16.20;79.30;;;;;;4999898;28;20534;-33
2024/04/06 05:24:13;;;;;;;2.55;2.20;;;16.20;79.30;;;;;;4996776;28;20035;-33
2024/04/06 05:26:43;;;;;;;3.08;2.05;;;16.20;79.30;;;;;;4999505;28;20494;-34
2024/04/06 05:29:09;;;;;;;2.88;2.33;;;16.20;79.30;;;;;;5000122;28;20073;-33
2024/04/06 05:31:35;;;;;;;2.72;2.10;;;16.20;79.30;;;;;;5001370;28;20486;-34
2024/04/06 05:34:01;;;;;;;2.90;2.20;;;16.20;79.30;;;;;;4989145;28;20038;-38
2024/04/06 05:36:26;;;;;;;2.60;2.10;;;16.20;79.30;;;;;;4996542;28;20035;-34
2024/04/06 05:38:52;;;;;;;3.53;2.10;;;16.20;79.30;;;;;;5031682;28;20026;-34
2024/04/06 05:41:18;;;;;;;2.80;2.33;;;16.20;79.30;;;;;;4983585;28;20033;-35
2024/04/06 05:43:44;;;;;;;2.92;2.15;;;16.20;79.30;;;;;;4993421;28;20092;-34
2024/04/06 05:46:09;;;;;;;2.22;2.03;;;16.20;79.30;;;;;;4999757;28;20034;-34
2024/04/06 05:48:35;;;;;;;2.95;2.28;;;16.20;79.30;;;;;;4994147;28;20030;-33
2024/04/06 05:51:01;;;;;;;2.40;2.00;;;16.20;79.30;;;;;;5030082;28;20030;-34
2024/04/06 05:53:27;;;;;;;2.85;1.98;;;16.20;79.30;;;;;;5000386;28;20031;-49
2024/04/06 05:55:53;;;;;;;3.03;1.98;;;16.20;79.30;;;;;;4997392;28;20962;-34
2024/04/06 05:58:19;;;;;;;2.20;1.95;;;16.20;79.30;;;;;;4995662;28;20534;-38
2024/04/06 06:00:45;;;;;;;2.47;2.00;;;16.20;79.30;;;;;;4995588;28;20019;-33
2024/04/06 06:03:11;;;;;;;2.00;1.80;;;16.20;79.30;;;;;;4988504;28;20061;-37
2024/04/06 06:05:37;;;;;;;2.63;1.95;;;16.20;79.30;;;;;;4982788;28;20039;-34
2024/04/06 06:08:03;;;;;;;2.63;2.00;;;16.10;79.30;;;;;;4989791;28;20057;-34
2024/04/06 06:10:29;;;;;;;2.67;2.03;;;16.20;79.40;;;;;;4994057;28;20037;-36
2024/04/06 06:12:56;;;;;;;3.92;2.28;;;16.10;79.30;;;;;;5000572;28;20030;-37
2024/04/06 06:15:22;;;;;;;2.80;2.13;;;16.10;79.30;;;;;;4998862;28;20025;-34
2024/04/06 06:17:48;;;;;;;2.30;1.90;;;16.10;79.30;;;;;;4997012;28;20302;-34
2024/04/06 06:20:14;;;;;;;3.67;2.20;;;16.10;79.30;;;;;;5001341;28;20026;-34
2024/04/06 06:22:39;;;;;;;2.30;1.90;;;16.10;79.30;;;;;;4999192;28;20038;-34
2024/04/06 06:25:05;;;;;;;2.45;1.98;;;16.10;79.40;;;;;;4988039;28;20402;-33
2024/04/06 06:27:32;;;;;;;2.28;1.92;;;16.10;79.40;;;;;;4999116;28;20054;-33
2024/04/06 06:30:00;;;;;;;2.53;2.05;;;16.10;79.40;;;;;;4998886;28;20022;-33
2024/04/06 06:32:26;;;;;;;2.63;1.90;;;16.10;79.40;;;;;;4995054;28;20109;-33
2024/04/06 06:34:52;;;;;;;2.42;2.10;;;16.10;79.40;;;;;;4997650;28;20108;-33
2024/04/06 06:37:18;;;;;;;3.47;2.10;;;16.10;79.40;;;;;;5025107;28;20462;-34
2024/04/06 06:39:44;;;;;;;2.30;1.98;;;16.10;79.40;;;;;;4990066;28;20026;-33
2024/04/06 06:42:11;;;;;;;3.25;2.13;;;16.10;79.40;;;;;;4998345;28;20498;-34
2024/04/06 06:44:38;;;;;;;2.65;1.92;;;16.20;79.50;;;;;;4992127;28;20026;-34
2024/04/06 06:47:05;;;;;;;2.85;1.98;;;16.20;79.50;;;;;;4992404;28;20062;-34
2024/04/06 06:49:31;;;;;;;3.15;2.20;;;16.20;79.50;;;;;;5030545;28;20030;-33
2024/04/06 06:51:57;;;;;;;2.38;2.00;;;16.20;79.50;;;;;;4998745;28;20030;-34
2024/04/06 06:54:23;;;;;;;2.83;2.00;;;16.20;79.50;;;;;;4996547;28;20449;-34
2024/04/06 06:56:49;;;;;;;2.53;1.92;;;16.20;79.50;;;;;;4995848;28;20030;-34
2024/04/06 06:59:15;;;;;;;2.40;1.90;;;16.20;79.50;;;;;;4990106;28;20397;-34
2024/04/06 07:01:40;;;;;;;2.88;1.95;;;16.20;79.50;;;;;;5014398;28;20045;-34
2024/04/06 07:04:06;;;;;;;3.05;2.00;;;16.20;79.60;;;;;;4983709;28;20430;-34
2024/04/06 07:06:32;;;;;;;2.78;2.20;;;16.20;79.60;;;;;;4990360;28;20097;-34
2024/04/06 07:08:58;;;;;;;2.85;1.80;;;16.20;80.20;;;;;;4990117;28;20069;-33
2024/04/06 07:11:24;;;;;;;1.90;1.70;;;16.20;79.70;;;;;;4994395;28;20566;-34
2024/04/06 07:13:50;;;;;;;3.42;2.00;;;16.20;79.60;;;;;;4998899;28;20051;-41
2024/04/06 07:16:16;;;;;;;2.85;2.10;;;16.20;79.60;;;;;;4994858;28;20090;-34
2024/04/06 07:18:42;;;;;;;2.88;1.80;;;16.20;79.60;;;;;;4993900;28;20038;-41
2024/04/06 07:21:13;;;;;;;2.92;2.03;;;16.20;79.70;;;;;;4988808;28;20046;-34
2024/04/06 07:23:39;;;;;;;2.42;1.90;;;16.20;79.60;;;;;;5022396;28;20030;-34
2024/04/06 07:26:05;;;;;;;1.85;1.65;;;16.20;79.60;;;;;;4988624;28;20030;-34
2024/04/06 07:28:31;;;;;;;2.90;1.98;;;16.20;79.60;;;;;;5028781;28;20406;-34
2024/04/06 07:30:57;;;;;;;2.92;2.15;;;16.20;79.60;;;;;;4994584;28;20018;-34
2024/04/06 07:33:23;;;;;;;3.80;1.95;;;16.30;79.70;;;;;;4995464;28;20026;-34
2024/04/06 07:35:49;;;;;;;2.75;1.75;;;16.30;79.60;;;;;;4994511;28;20030;-34
2024/04/06 07:38:15;;;;;;;2.67;1.95;;;16.30;79.60;;;;;;4998279;28;20026;-34
2024/04/06 07:40:41;;;;;;;2.70;2.00;;;16.30;79.60;;;;;;4999043;28;20121;-34
2024/04/06 07:43:07;;;;;;;3.30;2.10;;;16.30;79.60;;;;;;4994930;28;20038;-34
2024/04/06 07:45:33;;;;;;;2.63;1.98;;;16.30;80.30;;;;;;4996416;28;20397;-33
2024/04/06 07:47:59;;;;;;;3.15;2.10;;;16.40;79.70;;;;;;4993744;28;20140;-33
2024/04/06 07:50:24;;;;;;;3.15;2.25;;;16.40;79.70;;;;;;4989221;28;20046;-34
2024/04/06 07:52:50;;;;;;;3.63;2.08;;;16.40;79.70;;;;;;4998718;28;20027;-35
2024/04/06 07:55:16;;;;;;;2.95;2.17;;;16.40;79.60;;;;;;4991250;28;20041;-34
2024/04/06 07:57:44;;;;;;;2.35;1.85;;;16.40;79.60;;;;;;4995840;28;20034;-34
2024/04/06 08:00:11;;;;;;;2.97;2.00;;;16.40;79.70;;;;;;4990985;28;20459;-34
2024/04/06 08:02:37;;;;;;;3.92;1.95;;;16.40;79.70;;;;;;4996281;28;20401;-38
2024/04/06 08:05:03;;;;;;;3.60;2.13;;;16.50;79.70;;;;;;4998934;28;20031;-35
2024/04/06 08:07:31;;;;;;;3.45;1.90;;;16.50;79.70;;;;;;5030394;28;20066;-34
2024/04/06 08:10:01;;;;;;;2.80;1.73;;;16.50;79.70;;;;;;4995200;28;20026;-34
2024/04/06 08:12:27;;;;;;;2.58;1.92;;;16.50;79.80;;;;;;4991221;28;20042;-34
2024/04/06 08:14:53;;;;;;;2.78;2.05;;;16.50;79.80;;;;;;4997724;28;20037;-34
2024/04/06 08:17:19;;;;;;;2.80;2.10;;;16.50;79.80;;;;;;4995989;28;20043;-34
2024/04/06 08:19:45;;;;;;;2.72;2.00;;;16.60;79.80;;;;;;4998484;28;20033;-34
2024/04/06 08:22:11;;;;;;;2.92;2.10;;;16.60;79.80;;;;;;4992728;28;20046;-33
2024/04/06 08:24:39;;;;;;;2.30;1.92;;;16.60;79.80;;;;;;4989059;28;20078;-33
2024/04/06 08:27:05;;;;;;;2.88;1.90;;;16.70;79.90;;;;;;4997494;28;20470;-34
2024/04/06 08:29:31;;;;;;;2.25;1.85;;;16.70;79.80;;;;;;4999456;28;20105;-34
2024/04/06 08:31:57;;;;;;;3.40;2.03;;;16.70;79.80;;;;;;5000624;28;20056;-33
2024/04/06 08:34:22;;;;;;;2.60;1.77;;;16.70;79.70;;;;;;5000193;28;20485;-34
2024/04/06 08:36:48;;;;;;;2.28;1.80;;;16.80;79.70;;;;;;4993115;28;20023;-34
2024/04/06 08:39:14;;;;;;;2.10;1.73;;;16.80;79.70;;;;;;5001959;28;20063;-34
2024/04/06 08:41:45;;;;;;;2.30;1.90;;;16.80;79.70;;;;;;5000749;28;20037;-34
2024/04/06 08:44:16;;;;;;;3.17;2.00;;;16.90;79.80;;;;;;5002161;28;20444;-34
2024/04/06 08:46:41;;;;;;;4.10;2.05;;;16.90;79.80;;;;;;5002642;28;20070;-37
2024/04/06 08:49:12;;;;;;;3.78;2.00;;;16.90;79.70;;;;;;5001111;28;20033;-34
2024/04/06 08:51:40;;;;;;;3.20;2.00;;;17.00;79.70;;;;;;4984887;28;20042;-33
2024/04/06 08:54:06;;;;;;;4.15;1.77;;;17.00;79.60;;;;;;4986458;28;20026;-34
2024/04/06 08:56:32;;;;;;;3.00;1.98;;;17.00;79.50;;;;;;4984081;28;20054;-34
2024/04/06 08:59:01;;;;;;;2.65;1.80;;;17.10;79.60;;;;;;5025126;28;20253;-33
2024/04/06 09:01:27;;;;;;;3.28;1.88;;;17.20;79.60;;;;;;5001631;28;20129;-34
2024/04/06 09:03:53;;;;;;;2.97;1.83;;;17.20;79.60;;;;;;4995547;28;20022;-34
2024/04/06 09:06:19;;;;;;;3.58;2.00;;;17.30;79.70;;;;;;4991614;28;21823;-35
2024/04/06 09:08:45;;;;;;;2.42;1.80;;;17.30;79.60;;;;;;5003062;28;20023;-35
2024/04/06 09:11:14;;;;;;;2.60;2.13;;;17.40;79.70;;;;;;4998523;28;20023;-34
2024/04/06 09:13:42;;;;;;;2.33;2.00;;;17.40;79.70;;;;;;5001719;28;20074;-41
2024/04/06 09:16:09;;;;;;;2.75;2.00;;;17.50;79.70;;;;;;5000381;28;20027;-34
2024/04/06 09:18:36;;;;;;;2.40;1.88;;;17.60;79.70;;;;;;4994467;28;20414;-34
2024/04/06 09:21:04;;;;;;;2.72;1.80;;;17.60;79.50;;;;;;5000474;28;20597;-34
2024/04/06 09:23:30;;;;;;;3.92;1.88;;;17.70;79.50;;;;;;4988959;28;20037;-34
2024/04/06 09:26:00;;;;;;;2.63;2.10;;;17.80;79.60;;;;;;4998914;28;20133;-34
2024/04/06 09:28:27;;;;;;;3.10;1.95;;;17.90;79.60;;;;;;4996984;28;20113;-34
2024/04/06 09:30:58;;;;;;;2.63;1.85;;;17.90;79.50;;;;;;4991487;28;20031;-34
2024/04/06 09:33:25;;;;;;;3.05;1.73;;;18.00;79.40;;;;;;5000107;28;20031;-37
2024/04/06 09:35:51;;;;;;;3.75;1.90;;;18.10;79.30;;;;;;5029925;28;20034;-35
2024/04/06 09:38:18;;;;;;;2.13;1.77;;;18.20;79.20;;;;;;4996930;28;20027;-46
2024/04/06 09:40:46;;;;;;;2.15;1.55;;;18.30;79.20;;;;;;4998371;28;20774;-34
2024/04/06 09:43:15;;;;;;;2.58;1.80;;;18.40;79.10;;;;;;4992999;28;20034;-35
2024/04/06 09:45:41;;;;;;;2.20;1.73;;;18.40;79.00;;;;;;5000372;28;20045;-34
2024/04/06 09:48:10;;;;;;;2.67;1.63;;;18.50;78.90;;;;;;4995235;28;20033;-34
2024/04/06 09:50:38;;;;;;;2.50;1.60;;;18.60;78.90;;;;;;4995973;28;20517;-34
2024/04/06 09:53:07;;;;;;;2.40;1.75;;;18.70;78.80;;;;;;4999426;28;20042;-36
2024/04/06 09:55:37;;;;;;;2.03;1.80;;;18.80;78.80;;;;;;5000687;28;20057;-33
2024/04/06 09:58:03;;;;;;;2.70;1.90;;;18.90;78.80;;;;;;5000741;28;20575;-34
2024/04/06 10:00:29;;;;;;;2.35;1.83;;;19.00;78.70;;;;;;4998869;28;20049;-33
2024/04/06 10:02:55;;;;;;;1.90;1.70;;;19.00;78.60;;;;;;4990025;28;20459;-34
2024/04/06 10:05:21;;;;;;;1.95;1.63;;;19.10;78.60;;;;;;4996367;28;20498;-34
2024/04/06 10:07:50;;;;;;;2.72;1.80;;;19.20;78.50;;;;;;4994082;28;20085;-33
2024/04/06 10:10:18;;;;;;;3.15;1.80;;;19.20;78.50;;;;;;5001407;28;20041;-35
2024/04/06 10:12:45;;;;;;;2.47;1.67;;;19.30;78.50;;;;;;5000048;28;20030;-34
2024/04/06 10:15:18;;;;;;;3.50;1.83;;;19.40;78.40;;;;;;4992942;28;20581;-34
2024/04/06 10:17:50;;;;;;;2.22;1.65;;;19.50;78.40;;;;;;4997127;28;20682;-33
2024/04/06 10:20:21;;;;;;;2.42;1.55;;;19.50;78.30;;;;;;4998024;28;20027;-34
2024/04/06 10:22:51;;;;;;;2.15;1.70;;;19.60;78.30;;;;;;5001009;28;20056;-34
2024/04/06 10:25:23;;;;;;;2.08;1.67;;;19.70;78.20;;;;;;4998552;28;20034;-34
2024/04/06 10:27:57;;;;;;;3.22;1.65;;;19.70;78.20;;;;;;4992213;28;20106;-34
2024/04/06 10:30:24;;;;;;;2.85;2.00;;;19.80;78.20;;;;;;4988981;28;20037;-33
2024/04/06 10:32:50;;;;;;;2.05;1.55;;;19.90;78.20;;;;;;4998511;28;20065;-34
2024/04/06 10:35:16;;;;;;;1.55;1.40;;;19.90;78.10;;;;;;4996560;28;20031;-34
2024/04/06 10:37:41;;;;;;;2.35;1.73;;;20.00;78.10;;;;;;4998481;28;20165;-34
2024/04/06 10:40:09;;;;;;;1.80;1.50;;;20.10;78.10;;;;;;5000864;28;20030;-33
2024/04/06 10:42:38;;;;;;;1.85;1.52;;;20.20;78.20;;;;;;4989430;28;20026;-34
2024/04/06 10:45:04;;;;;;;2.30;1.42;;;20.20;78.00;;;;;;4999829;28;20058;-34
2024/04/06 10:47:30;;;;;;;2.15;1.70;;;20.30;78.70;;;;;;4998493;28;20039;-34
2024/04/06 10:49:56;;;;;;;2.22;1.55;;;20.30;78.00;;;;;;4995772;28;20093;-34
2024/04/06 10:52:22;;;;;;;2.75;1.80;;;20.40;78.00;;;;;;4995787;28;20228;-36
2024/04/06 10:54:49;;;;;;;2.17;1.60;;;20.50;78.00;;;;;;4990780;28;20026;-35
2024/04/06 10:57:16;;;;;;;2.25;1.60;;;20.50;77.90;;;;;;4988792;28;20038;-34
2024/04/06 10:59:42;;;;;;;1.73;1.58;;;20.60;77.90;;;;;;4993987;28;20023;-34
2024/04/06 11:02:08;;;;;;;1.90;1.70;;;20.70;77.80;;;;;;5019908;28;20057;-34
2024/04/06 11:04:38;;;;;;;1.63;1.42;;;20.80;77.80;;;;;;5028632;28;20529;-34
2024/04/06 11:07:04;;;;;;;2.75;1.67;;;20.90;77.70;;;;;;4993781;28;20151;-34
2024/04/06 11:09:31;;;;;;;2.30;1.40;;;20.90;77.70;;;;;;4997847;28;20514;-34
2024/04/06 11:11:56;;;;;;;1.77;1.58;;;21.00;77.60;;;;;;4997167;28;20031;-33
2024/04/06 11:14:25;;;;;;;1.98;1.58;;;21.00;77.50;;;;;;4995081;28;20382;-33
2024/04/06 11:16:52;;;;;;;2.15;1.50;;;21.10;77.50;;;;;;4994227;28;20031;-33
2024/04/06 11:19:18;;;;;;;2.33;1.70;;;21.20;77.50;;;;;;4997672;28;20026;-32
2024/04/06 11:21:44;;;;;;;1.58;1.30;;;21.20;77.40;;;;;;4998222;28;20037;-34
2024/04/06 11:24:10;;;;;;;2.08;1.40;;;21.30;77.40;;;;;;4998578;28;20031;-33
2024/04/06 11:26:36;;;;;;;2.50;1.48;;;21.40;77.40;;;;;;4998349;28;20467;-33
2024/04/06 11:29:03;;;;;;;1.98;1.50;;;21.40;77.30;;;;;;4996170;28;20080;-33
2024/04/06 11:31:28;;;;;;;1.90;1.55;;;21.50;77.30;;;;;;4996865;28;20037;-33
2024/04/06 11:33:58;;;;;;;2.65;1.40;;;21.60;77.20;;;;;;4997701;28;20022;-32
2024/04/06 11:36:24;;;;;;;2.13;1.70;;;21.60;77.20;;;;;;5029409;28;20093;-32
2024/04/06 11:38:49;;;;;;;3.65;1.70;;;21.70;77.10;;;;;;4998873;28;20034;-33
2024/04/06 11:41:15;;;;;;;1.83;1.60;;;21.70;77.00;;;;;;4992457;28;20034;-33
2024/04/06 11:43:41;;;;;;;2.05;1.58;;;21.80;77.00;;;;;;5000224;28;20026;-32
2024/04/06 11:46:06;;;;;;;1.77;1.50;;;21.90;77.00;;;;;;4997194;28;20031;-33
2024/04/06 11:48:32;;;;;;;1.83;1.50;;;21.90;76.90;;;;;;4989752;28;20390;-33
2024/04/06 11:50:58;;;;;;;2.05;1.40;;;22.00;77.00;;;;;;5005368;28;20392;-32
2024/04/06 11:53:24;;;;;;;1.92;1.52;;;22.10;77.00;;;;;;5007120;28;20090;-33
2024/04/06 11:55:49;;;;;;;2.20;1.55;;;22.10;76.90;;;;;;4997638;28;20117;-34
2024/04/06 11:58:15;;;;;;;1.95;1.50;;;22.20;76.90;;;;;;4995655;28;20030;-33
2024/04/06 12:00:41;;;;;;;1.83;1.50;;;22.30;76.90;;;;;;4990592;28;20033;-33
2024/04/06 12:03:07;;;;;;;1.60;1.27;;;22.30;76.80;;;;;;4997113;28;20029;-34
2024/04/06 12:05:33;;;;;;;1.80;1.40;;;22.40;76.80;;;;;;4998619;28;20074;-33
2024/04/06 12:07:59;;;;;;;1.85;1.45;;;22.40;76.70;;;;;;4996197;28;20035;-34
2024/04/06 12:10:24;;;;;;;2.08;1.58;;;22.50;76.70;;;;;;5001459;28;20033;-34
2024/04/06 12:12:50;;;;;;;1.40;1.30;;;22.60;76.70;;;;;;5001020;28;20026;-33
2024/04/06 12:15:18;;;;;;;2.20;1.40;;;22.60;76.70;;;;;;5000409;28;20090;-34
2024/04/06 12:17:44;;;;;;;1.48;1.38;;;22.70;76.70;;;;;;4996991;28;20042;-33
2024/04/06 12:20:10;;;;;;;1.55;1.40;;;22.70;76.70;;;;;;4999140;28;20029;-34
2024/04/06 12:22:36;;;;;;;2.45;1.70;;;22.80;76.60;;;;;;5001277;28;20066;-34
2024/04/06 12:25:01;;;;;;;3.33;1.80;;;22.80;76.60;;;;;;4999621;28;20052;-34
2024/04/06 12:27:27;;;;;;;2.40;1.40;;;22.90;76.60;;;;;;4991351;28;20050;-34
2024/04/06 12:29:53;;;;;;;1.77;1.40;;;23.00;76.60;;;;;;5001072;28;20042;-34
2024/04/06 12:32:19;;;;;;;2.00;1.40;;;23.10;77.30;;;;;;4997419;28;20034;-34
2024/04/06 12:34:45;;;;;;;2.58;1.58;;;23.10;76.60;;;;;;5016387;28;20042;-33
2024/04/06 12:37:13;;;;;;;1.90;1.42;;;23.20;76.60;;;;;;4994261;28;20033;-33
2024/04/06 12:39:42;;;;;;;2.03;1.48;;;23.20;76.60;;;;;;5001214;28;20026;-33
2024/04/06 12:42:08;;;;;;;1.67;1.55;;;23.30;76.50;;;;;;5000969;28;20026;-34
2024/04/06 12:44:34;;;;;;;1.65;1.40;;;23.30;76.50;;;;;;4996624;28;20064;-34